createdAt,value
2019-01-22T00:00:25.115Z,-1.80
2019-01-22T00:02:55.648Z,-1.80
2019-01-22T00:05:27.652Z,-1.80
2019-01-22T00:07:58.535Z,-1.70
2019-01-22T00:10:27.358Z,-1.60
2019-01-22T00:12:56.722Z,-1.50
2019-01-22T00:15:28.879Z,-1.50
2019-01-22T00:17:57.697Z,-1.70
2019-01-22T00:20:26.430Z,-1.40
2019-01-22T00:23:02.805Z,-1.50
2019-01-22T00:25:28.755Z,-1.60
2019-01-22T00:27:58.906Z,-1.60
2019-01-22T00:30:28.171Z,-1.60
2019-01-22T00:32:57.036Z,-1.60
2019-01-22T00:35:26.234Z,-1.50
2019-01-22T00:37:55.161Z,-1.60
2019-01-22T00:40:24.244Z,-1.60
2019-01-22T00:42:53.544Z,-1.70
2019-01-22T00:45:22.506Z,-1.80
2019-01-22T00:47:51.373Z,-1.80
2019-01-22T00:50:20.766Z,-1.70
2019-01-22T00:52:49.584Z,-1.60
2019-01-22T00:55:19.261Z,-1.60
2019-01-22T00:57:49.585Z,-1.60
2019-01-22T01:00:29.659Z,-1.60
2019-01-22T01:03:01.966Z,-1.70
2019-01-22T01:05:31.518Z,-1.60
2019-01-22T01:08:16.987Z,-1.40
2019-01-22T01:10:52.415Z,-1.30
2019-01-22T01:13:26.526Z,-1.20
2019-01-22T01:15:58.990Z,-1.20
2019-01-22T01:18:33.459Z,-1.10
2019-01-22T01:21:06.454Z,-1.00
2019-01-22T01:23:50.012Z,-0.90
2019-01-22T01:26:28.665Z,-0.80
2019-01-22T01:29:01.703Z,-0.80
2019-01-22T01:31:40.869Z,-0.70
2019-01-22T01:34:21.188Z,-0.70
2019-01-22T01:36:44.121Z,-0.60
2019-01-22T01:39:12.839Z,-0.50
2019-01-22T01:41:41.691Z,-0.50
2019-01-22T01:44:10.581Z,-0.70
2019-01-22T01:46:39.674Z,-0.90
2019-01-22T01:49:11.176Z,-0.80
2019-01-22T01:51:39.952Z,-0.70
2019-01-22T01:54:08.796Z,-0.70
2019-01-22T01:56:37.533Z,-0.60
2019-01-22T01:59:07.173Z,-0.60
2019-01-22T02:01:35.988Z,-0.60
2019-01-22T02:04:04.721Z,-0.60
2019-01-22T02:06:33.616Z,-0.80
2019-01-22T02:09:02.401Z,-1.10
2019-01-22T02:11:31.235Z,0.10
2019-01-22T02:14:00.315Z,-1.60
2019-01-22T02:16:34.926Z,-1.60
2019-01-22T02:19:09.350Z,-1.40
2019-01-22T02:22:08.403Z,-1.40
2019-01-22T02:24:42.791Z,-1.20
2019-01-22T02:27:29.103Z,-1.20
2019-01-22T02:30:09.316Z,-1.30
2019-01-22T02:32:42.829Z,-1.40
2019-01-22T02:35:17.151Z,-1.50
2019-01-22T02:37:58.498Z,-1.50
2019-01-22T02:40:39.248Z,-1.30
2019-01-22T02:43:36.630Z,-1.30
2019-01-22T02:46:28.548Z,-1.30
2019-01-22T02:49:18.264Z,-1.40
2019-01-22T02:51:50.078Z,-1.40
2019-01-22T02:54:19.505Z,-1.30
2019-01-22T02:57:10.388Z,-1.40
2019-01-22T03:00:01.838Z,-1.40
2019-01-22T03:03:01.801Z,-1.30
2019-01-22T03:05:37.045Z,-1.40
2019-01-22T03:08:24.938Z,-1.30
2019-01-22T03:11:01.864Z,-1.20
2019-01-22T03:13:43.639Z,-1.20
2019-01-22T03:16:51.306Z,-0.90
2019-01-22T03:19:34.975Z,-0.90
2019-01-22T03:22:16.281Z,-1.00
2019-01-22T03:24:54.108Z,-1.10
2019-01-22T03:27:45.638Z,-0.90
2019-01-22T03:30:23.697Z,-0.80
2019-01-22T03:32:58.561Z,-0.70
2019-01-22T03:35:56.543Z,-0.60
2019-01-22T03:38:37.059Z,-0.60
2019-01-22T03:41:09.780Z,-0.50
2019-01-22T03:43:47.393Z,-0.50
2019-01-22T03:46:28.063Z,-0.50
2019-01-22T03:48:59.841Z,-0.50
2019-01-22T03:51:31.635Z,-0.50
2019-01-22T03:54:06.335Z,-0.60
2019-01-22T03:57:11.427Z,-0.50
2019-01-22T03:59:40.221Z,-0.50
2019-01-22T04:02:09.435Z,-0.60
2019-01-22T04:04:38.389Z,-0.50
2019-01-22T04:07:07.182Z,-0.60
2019-01-22T04:09:36.626Z,-0.60
2019-01-22T04:12:05.428Z,-0.70
2019-01-22T04:14:34.376Z,-0.70
2019-01-22T04:17:03.248Z,-0.80
2019-01-22T04:19:31.973Z,-0.90
2019-01-22T04:22:00.788Z,-1.00
2019-01-22T04:24:53.793Z,-1.20
2019-01-22T04:27:31.425Z,-1.10
2019-01-22T04:30:14.904Z,-1.00
2019-01-22T04:32:46.651Z,-0.90
2019-01-22T04:35:33.545Z,-0.80
2019-01-22T04:38:07.156Z,-0.80
2019-01-22T04:40:50.950Z,-0.80
2019-01-22T04:43:40.656Z,-1.00
2019-01-22T04:46:12.384Z,-1.10
2019-01-22T04:48:57.115Z,-1.10
2019-01-22T04:51:43.041Z,-1.10
2019-01-22T04:54:27.484Z,-1.00
2019-01-22T04:57:14.021Z,-0.80
2019-01-22T05:00:13.474Z,-0.70
2019-01-22T05:02:47.776Z,-0.70
2019-01-22T05:05:44.219Z,-0.70
2019-01-22T05:08:35.808Z,-0.80
2019-01-22T05:11:23.118Z,-0.90
2019-01-22T05:14:00.850Z,-0.90
2019-01-22T05:16:54.779Z,-1.00
2019-01-22T05:19:35.890Z,-1.10
2019-01-22T05:22:10.379Z,-1.30
2019-01-22T05:24:42.141Z,-1.20
2019-01-22T05:27:38.220Z,-1.00
2019-01-22T05:30:18.701Z,0.80
2019-01-22T05:33:25.299Z,-1.10
2019-01-22T05:36:14.969Z,-1.20
2019-01-22T05:39:08.689Z,-1.40
2019-01-22T05:41:43.055Z,-1.60
2019-01-22T05:44:43.372Z,-2.30
2019-01-22T05:47:27.085Z,-1.60
2019-01-22T05:50:09.679Z,-1.60
2019-01-22T05:53:07.187Z,-1.50
2019-01-22T05:55:54.795Z,-1.40
2019-01-22T05:58:47.808Z,-1.40
2019-01-22T06:01:22.744Z,-1.30
2019-01-22T06:04:00.615Z,-1.40
2019-01-22T06:06:32.979Z,-1.50
2019-01-22T06:09:06.249Z,-1.60
2019-01-22T06:15:26.972Z,-1.60
2019-01-22T06:18:03.166Z,-1.70
2019-01-22T06:21:02.323Z,-1.60
2019-01-22T06:23:58.309Z,-1.70
2019-01-22T06:26:45.778Z,-1.70
2019-01-22T06:29:56.093Z,-1.70
2019-01-22T06:32:43.362Z,-1.30
2019-01-22T06:35:22.167Z,-0.40
2019-01-22T06:38:33.319Z,0.50
2019-01-22T06:41:14.572Z,-0.10
2019-01-22T06:43:57.988Z,-0.90
2019-01-22T06:46:42.033Z,-1.10
2019-01-22T06:49:25.019Z,-1.30
2019-01-22T06:52:10.474Z,-1.50
2019-01-22T06:54:56.330Z,-1.60
2019-01-22T06:57:46.953Z,-1.90
2019-01-22T07:00:41.674Z,-2.00
2019-01-22T07:03:45.261Z,-2.00
2019-01-22T07:06:34.354Z,-1.90
2019-01-22T07:09:27.128Z,-2.00
2019-01-22T07:12:16.286Z,-1.90
2019-01-22T07:15:04.940Z,-0.70
2019-01-22T07:17:44.502Z,-1.90
2019-01-22T07:20:42.877Z,-1.90
2019-01-22T07:23:21.384Z,-1.90
2019-01-22T07:26:10.954Z,-1.80
2019-01-22T07:28:50.919Z,-1.80
2019-01-22T07:31:28.869Z,-1.80
2019-01-22T07:34:18.591Z,-1.70
2019-01-22T07:37:11.301Z,-1.60
2019-01-22T07:39:55.831Z,-1.80
2019-01-22T07:42:33.929Z,-1.90
2019-01-22T07:45:17.499Z,-1.90
2019-01-22T07:47:55.662Z,-1.90
2019-01-22T07:50:38.181Z,-1.70
2019-01-22T07:53:26.792Z,-1.60
2019-01-22T07:56:24.485Z,-1.60
2019-01-22T07:58:59.585Z,-1.70
2019-01-22T08:01:32.309Z,-1.80
2019-01-22T08:04:17.136Z,-1.80
2019-01-22T08:07:15.379Z,-1.80
2019-01-22T08:10:13.955Z,-2.00
2019-01-22T08:13:15.409Z,-1.70
2019-01-22T08:15:53.567Z,-1.80
2019-01-22T08:18:46.452Z,-1.90
2019-01-22T08:21:33.723Z,-1.90
2019-01-22T08:24:14.418Z,-1.70
2019-01-22T08:27:02.734Z,-1.60
2019-01-22T08:29:45.058Z,-1.50
2019-01-22T08:32:45.513Z,-1.50
2019-01-22T08:35:28.409Z,-1.50
2019-01-22T08:38:13.240Z,-1.30
2019-01-22T08:41:06.697Z,0.00
2019-01-22T08:44:07.342Z,-1.30
2019-01-22T08:46:45.138Z,-1.10
2019-01-22T08:49:18.625Z,-1.20
2019-01-22T08:51:53.547Z,-1.00
2019-01-22T08:54:38.368Z,-1.00
2019-01-22T08:57:16.889Z,-1.30
2019-01-22T09:00:17.076Z,-1.30
2019-01-22T09:03:02.737Z,-1.60
2019-01-22T09:05:38.657Z,-1.20
2019-01-22T09:08:14.243Z,-1.00
2019-01-22T09:10:57.813Z,-0.70
2019-01-22T09:14:02.092Z,-0.70
2019-01-22T09:16:53.620Z,-0.90
2019-01-22T09:19:43.863Z,-1.10
2019-01-22T09:22:26.522Z,-0.90
2019-01-22T09:25:06.654Z,-0.60
2019-01-22T09:27:48.421Z,-0.30
2019-01-22T09:30:33.334Z,-0.40
2019-01-22T09:33:13.027Z,-0.20
2019-01-22T09:36:04.868Z,-0.10
2019-01-22T09:38:40.976Z,-0.40
2019-01-22T09:41:11.695Z,-0.70
2019-01-22T09:43:44.939Z,-0.60
2019-01-22T09:46:18.161Z,-0.40
2019-01-22T09:48:51.077Z,-0.40
2019-01-22T09:51:24.677Z,-0.40
2019-01-22T09:53:53.783Z,-0.20
2019-01-22T09:56:23.892Z,0.00
2019-01-22T09:58:58.123Z,0.00
2019-01-22T10:01:30.342Z,0.10
2019-01-22T10:04:03.497Z,0.00
2019-01-22T10:06:38.943Z,0.00
2019-01-22T10:09:13.501Z,0.00
2019-01-22T10:11:45.707Z,0.20
2019-01-22T10:14:23.458Z,0.10
2019-01-22T10:16:54.558Z,0.00
2019-01-22T10:19:28.258Z,-0.10
2019-01-22T10:22:02.968Z,-0.10
2019-01-22T10:24:35.951Z,-0.20
2019-01-22T10:27:14.881Z,-0.20
2019-01-22T10:29:45.604Z,-0.10
2019-01-22T10:32:15.984Z,-0.20
2019-01-22T10:34:46.776Z,-0.10
2019-01-22T10:37:17.325Z,0.20
2019-01-22T10:39:48.973Z,0.10
2019-01-22T10:42:25.888Z,0.20
2019-01-22T10:44:56.884Z,0.30
2019-01-22T10:47:32.208Z,0.30
2019-01-22T10:50:04.457Z,0.30
2019-01-22T10:52:38.880Z,0.10
2019-01-22T10:55:16.673Z,0.00
2019-01-22T10:58:01.790Z,0.00
2019-01-22T11:00:33.990Z,-0.10
2019-01-22T11:03:06.897Z,0.10
2019-01-22T11:05:39.056Z,1.20
2019-01-22T11:08:10.304Z,0.30
2019-01-22T11:10:55.465Z,0.50
2019-01-22T11:13:28.961Z,0.30
2019-01-22T11:16:00.001Z,0.40
2019-01-22T11:18:40.127Z,0.50
2019-01-22T11:21:14.684Z,0.10
2019-01-22T11:23:45.626Z,0.30
2019-01-22T11:26:24.052Z,0.60
2019-01-22T11:29:46.227Z,0.50
2019-01-22T11:32:19.583Z,0.50
2019-01-22T11:35:20.113Z,0.50
2019-01-22T11:38:00.678Z,0.50
2019-01-22T11:41:24.113Z,0.60
2019-01-22T11:44:01.909Z,0.50
2019-01-22T11:47:18.102Z,0.30
2019-01-22T11:49:52.305Z,0.20
2019-01-22T11:53:04.699Z,0.40
2019-01-22T11:55:33.339Z,0.60
2019-01-22T11:58:53.118Z,0.70
2019-01-22T12:01:39.172Z,0.70
2019-01-22T12:05:01.979Z,1.40
2019-01-22T12:07:33.511Z,1.70
2019-01-22T12:10:36.620Z,1.70
2019-01-22T12:13:19.177Z,1.90
2019-01-22T12:16:45.429Z,2.10
2019-01-22T12:19:28.795Z,1.40
2019-01-22T12:28:53.717Z,1.90
2019-01-22T12:31:22.820Z,1.80
2019-01-22T12:34:28.231Z,1.60
2019-01-22T12:36:57.184Z,1.60
2019-01-22T12:40:26.079Z,1.70
2019-01-22T12:42:56.102Z,1.00
2019-01-22T12:45:51.901Z,1.50
2019-01-22T12:48:28.657Z,1.40
2019-01-22T12:51:57.690Z,1.40
2019-01-22T12:54:28.738Z,1.50
2019-01-22T12:57:27.910Z,1.50
2019-01-22T12:59:59.534Z,1.20
2019-01-22T13:03:13.299Z,1.10
2019-01-22T13:05:52.059Z,0.80
2019-01-22T13:09:12.156Z,1.30
2019-01-22T13:11:46.979Z,0.80
2019-01-22T13:15:00.999Z,0.40
2019-01-22T13:17:30.665Z,0.30
2019-01-22T13:20:51.849Z,0.60
2019-01-22T13:23:21.160Z,0.80
2019-01-22T13:26:28.887Z,1.20
2019-01-22T13:29:03.866Z,1.40
2019-01-22T13:31:47.888Z,1.50
2019-01-22T13:34:21.895Z,1.60
2019-01-22T13:37:27.212Z,1.70
2019-01-22T13:39:59.436Z,1.30
2019-01-22T13:43:02.611Z,1.00
2019-01-22T13:45:49.416Z,0.70
2019-01-22T13:49:13.639Z,0.60
2019-01-22T13:51:43.956Z,0.50
2019-01-22T13:55:03.329Z,0.60
2019-01-22T13:57:50.384Z,0.50
2019-01-22T14:01:11.930Z,0.50
2019-01-22T14:03:45.794Z,0.40
2019-01-22T14:13:23.838Z,1.00
2019-01-22T14:16:20.578Z,0.60
2019-01-22T14:18:55.780Z,0.50
2019-01-22T14:21:28.712Z,0.70
2019-01-22T14:24:00.072Z,0.70
2019-01-22T14:27:27.156Z,1.00
2019-01-22T14:30:13.933Z,1.40
2019-01-22T14:33:12.505Z,1.80
2019-01-22T14:35:42.330Z,1.40
2019-01-22T14:38:50.559Z,1.10
2019-01-22T14:41:20.414Z,1.10
2019-01-22T14:44:29.891Z,1.00
2019-01-22T14:47:06.328Z,1.20
2019-01-22T14:50:14.397Z,1.00
2019-01-22T14:52:50.544Z,1.20
2019-01-22T14:55:44.088Z,1.30
2019-01-22T14:58:10.854Z,1.50
2019-01-22T15:07:43.687Z,1.80
2019-01-22T15:10:17.271Z,2.00
2019-01-22T15:13:30.230Z,1.90
2019-01-22T15:16:16.649Z,2.00
2019-01-22T15:19:32.922Z,2.10
2019-01-22T15:22:18.320Z,2.20
2019-01-22T15:25:26.368Z,2.20
2019-01-22T15:28:09.016Z,2.30
2019-01-22T15:31:37.402Z,2.20
2019-01-22T15:34:06.297Z,2.10
2019-01-22T15:37:23.529Z,1.80
2019-01-22T15:39:56.375Z,1.80
2019-01-22T15:43:01.410Z,1.70
2019-01-22T15:45:35.162Z,1.50
2019-01-22T15:48:32.185Z,1.60
2019-01-22T15:51:07.891Z,1.70
2019-01-22T15:54:11.347Z,1.80
2019-01-22T15:56:48.698Z,2.00
2019-01-22T16:00:12.160Z,2.00
2019-01-22T16:02:46.841Z,1.90
2019-01-22T16:06:00.064Z,1.90
2019-01-22T16:08:36.968Z,1.10
2019-01-22T16:17:58.830Z,1.80
2019-01-22T16:20:33.234Z,1.80
2019-01-22T16:24:01.504Z,1.70
2019-01-22T16:26:32.607Z,1.40
2019-01-22T16:29:51.941Z,1.50
2019-01-22T16:32:24.600Z,1.70
2019-01-22T16:35:28.366Z,1.70
2019-01-22T16:38:00.346Z,3.10
2019-01-22T16:41:14.097Z,1.70
2019-01-22T16:43:47.867Z,1.50
2019-01-22T16:46:53.243Z,1.40
2019-01-22T16:49:26.821Z,1.20
2019-01-22T16:52:23.533Z,1.20
2019-01-22T16:54:57.000Z,1.10
2019-01-22T16:58:21.779Z,1.00
2019-01-22T17:00:55.550Z,1.00
2019-01-22T17:03:53.588Z,1.10
2019-01-22T17:06:16.920Z,-0.30
2019-01-22T17:09:37.257Z,1.30
2019-01-22T17:12:11.133Z,1.20
2019-01-22T17:15:13.869Z,1.20
2019-01-22T17:18:01.114Z,1.40
2019-01-22T17:20:59.354Z,1.60
2019-01-22T17:23:30.536Z,2.10
2019-01-22T17:26:01.051Z,1.20
2019-01-22T17:28:37.306Z,1.20
2019-01-22T17:31:40.340Z,1.10
2019-01-22T17:34:10.953Z,1.20
2019-01-22T17:37:35.323Z,1.20
2019-01-22T17:40:19.106Z,1.30
2019-01-22T17:43:28.790Z,1.20
2019-01-22T17:46:14.704Z,1.20
2019-01-22T17:49:05.211Z,1.00
2019-01-22T17:51:36.464Z,0.70
2019-01-22T17:54:43.367Z,1.30
2019-01-22T17:57:15.478Z,1.30
2019-01-22T18:00:30.757Z,1.00
2019-01-22T18:03:10.831Z,0.90
2019-01-22T18:06:16.077Z,0.80
2019-01-22T18:08:47.325Z,0.90
2019-01-22T18:11:22.979Z,0.90
2019-01-22T18:14:00.682Z,0.80
2019-01-22T18:19:23.791Z,1.00
2019-01-22T18:24:49.680Z,1.10
2019-01-22T18:27:20.734Z,0.60
2019-01-22T18:30:43.339Z,1.20
2019-01-22T18:33:15.598Z,1.10
2019-01-22T18:35:49.671Z,1.20
2019-01-22T18:38:24.595Z,1.30
2019-01-22T18:41:00.025Z,1.20
2019-01-22T18:43:34.367Z,1.30
2019-01-22T18:46:06.516Z,1.50
2019-01-22T18:48:44.769Z,3.40
2019-01-22T18:54:29.464Z,1.80
2019-01-22T18:57:02.487Z,1.50
2019-01-22T19:00:32.635Z,1.40
2019-01-22T19:03:11.928Z,1.40
